Pagrindinis puslapis
METAR-TAF:

METAR-TAF

Oro uostai :

Santjagas, Čilė

platuma: 33-23S, ilguma: 070-47W, Aukštis: 475 m

Dabartinis oras

Ataskaita buvo paskelbta 23 minutes, ne 02:00 UTC
Vėjas 10 kt iš Pietų/Pietryčių
Temperatūra 17°C
Drėgmė 68%
Slėgis 1016 hPa
Matomumas 10 km arba daugiau
nėra debesų žemiau 1500 m ir nėra kamuolinių lietaus debesų

METAR: SCEL 240200Z 16010KT CAVOK 17/11 Q1016 NOSIG

Laikas: 23:23 (02:23 UTC)

Prognozė

Ataskaita buvo paskelbta 4 valandos ir 5 minutes, ne 22:18 UTC
Prognozė galioja nuo 24 metu 00 UTC su 24 metu 24 UTC
Vėjas 15 kt iš Pietų/Pietvakarių
Matomumas 10 km arba daugiau
nėra debesų žemiau 1500 m ir nėra kamuolinių lietaus debesų
Tapsmas
nuo 24 metu 02 UTC su 24 metu 04 UTC
Vėjas 4 kt iš Pietų/Pietryčių
Tapsmas
nuo 24 metu 16 UTC su 24 metu 18 UTC
Vėjas 15 kt iš Pietų/Pietvakarių

TAF: SCEL 232218Z 2400/2424 20015KT CAVOK TX26/2419Z TN12/2411Z BECMG 2402/2404 16004KT BECMG 2416/2418 20015KT

Orai ataskaitas ir orų prognozės (METAR, TAF).

turimą stotys yra geltonos ir raudonos taškus žemėlapyje.

Perkelti pele per norėdami pamatyti stoties vardą.

Tada spustelėkite, norėdami matyti oro stebėjimo ir prognozės.

Norėdami pakeisti žemėlapį: spustelėkite ant žalios mygtukų su juodo kryžiaus žemyn,; žalią mygtuką su brūkšneliu, jei norite nutolinti; arba žalių rodyklių gretimoms žemėlapius.


METAR-TAF: